createdAt,value
2018-03-18T00:01:13.585Z,85.40
2018-03-18T00:03:40.059Z,85.90
2018-03-18T00:06:06.759Z,86.00
2018-03-18T00:08:35.584Z,84.90
2018-03-18T00:11:02.812Z,84.90
2018-03-18T00:13:29.292Z,84.80
2018-03-18T00:15:55.827Z,85.70
2018-03-18T00:18:22.877Z,84.80
2018-03-18T00:20:49.517Z,84.20
2018-03-18T00:23:16.694Z,84.40
2018-03-18T00:25:43.249Z,84.40
2018-03-18T00:28:09.808Z,84.60
2018-03-18T00:30:36.940Z,83.70
2018-03-18T00:33:03.372Z,83.70
2018-03-18T00:35:30.517Z,84.20
2018-03-18T00:37:56.978Z,84.20
2018-03-18T00:40:23.423Z,84.10
2018-03-18T00:42:49.977Z,83.90
2018-03-18T00:45:17.189Z,83.70
2018-03-18T00:47:43.707Z,83.70
2018-03-18T00:50:10.978Z,83.50
2018-03-18T00:52:39.438Z,83.10
2018-03-18T00:55:06.680Z,83.20
2018-03-18T00:57:33.210Z,83.20
2018-03-18T00:59:59.775Z,83.10
2018-03-18T01:02:26.328Z,82.80
2018-03-18T01:04:52.811Z,82.80
2018-03-18T01:07:19.446Z,82.70
2018-03-18T01:09:46.959Z,82.30
2018-03-18T01:12:13.581Z,82.30
2018-03-18T01:14:40.148Z,82.40
2018-03-18T01:17:07.371Z,83.10
2018-03-18T01:19:33.877Z,83.00
2018-03-18T01:22:01.155Z,82.80
2018-03-18T01:24:27.607Z,82.80
2018-03-18T01:26:54.845Z,82.70
2018-03-18T01:29:21.309Z,82.70
2018-03-18T01:31:47.805Z,83.00
2018-03-18T01:34:14.492Z,82.70
2018-03-18T01:36:41.320Z,82.50
2018-03-18T01:39:08.230Z,82.40
2018-03-18T01:41:34.722Z,82.40
2018-03-18T01:44:01.929Z,82.80
2018-03-18T01:46:28.569Z,82.70
2018-03-18T01:48:56.525Z,83.50
2018-03-18T01:51:23.227Z,83.50
2018-03-18T01:53:50.400Z,82.30
2018-03-18T01:56:17.582Z,81.90
2018-03-18T01:58:44.004Z,81.90
2018-03-18T02:01:10.491Z,82.40
2018-03-18T02:03:37.149Z,82.50
2018-03-18T02:06:03.663Z,82.80
2018-03-18T02:08:30.845Z,83.10
2018-03-18T02:10:58.291Z,83.30
2018-03-18T02:13:24.893Z,83.20
2018-03-18T02:15:51.310Z,82.90
2018-03-18T02:18:17.758Z,82.60
2018-03-18T02:20:44.475Z,82.00
2018-03-18T02:23:11.762Z,81.60
2018-03-18T02:25:38.911Z,81.60
2018-03-18T02:28:06.143Z,81.60
2018-03-18T02:30:32.668Z,81.50
2018-03-18T02:32:59.141Z,82.10
2018-03-18T02:35:25.576Z,81.40
2018-03-18T02:37:52.023Z,81.10
2018-03-18T02:40:19.146Z,81.60
2018-03-18T02:42:46.459Z,81.60
2018-03-18T02:45:12.887Z,81.60
2018-03-18T02:47:40.269Z,81.40
2018-03-18T02:50:06.854Z,81.90
2018-03-18T02:52:34.054Z,81.80
2018-03-18T02:55:00.486Z,81.70
2018-03-18T02:57:27.682Z,81.20
2018-03-18T02:59:54.152Z,81.20
2018-03-18T03:02:21.126Z,81.50
2018-03-18T03:04:47.669Z,82.30
2018-03-18T03:07:14.316Z,81.00
2018-03-18T03:09:42.487Z,81.20
2018-03-18T03:12:09.068Z,81.10
2018-03-18T03:14:36.696Z,81.40
2018-03-18T03:17:03.214Z,81.40
2018-03-18T03:19:30.452Z,81.00
2018-03-18T03:21:56.874Z,80.90
2018-03-18T03:24:23.369Z,80.60
2018-03-18T03:26:49.913Z,80.30
2018-03-18T03:29:16.443Z,80.30
2018-03-18T03:31:42.876Z,79.90
2018-03-18T03:34:09.367Z,79.80
2018-03-18T03:36:35.755Z,80.20
2018-03-18T03:39:02.399Z,80.10
2018-03-18T03:41:28.810Z,80.00
2018-03-18T03:45:40.890Z,80.00
2018-03-18T03:48:08.096Z,79.50
2018-03-18T03:50:34.593Z,79.50
2018-03-18T03:53:01.025Z,79.20
2018-03-18T03:55:27.457Z,79.70
2018-03-18T03:57:53.905Z,80.70
2018-03-18T04:00:20.344Z,79.90
2018-03-18T04:02:47.587Z,80.20
2018-03-18T04:05:14.762Z,80.80
2018-03-18T04:07:41.179Z,80.10
2018-03-18T04:10:07.642Z,80.10
2018-03-18T04:12:34.169Z,79.40
2018-03-18T04:15:01.371Z,79.10
2018-03-18T04:17:27.806Z,78.90
2018-03-18T04:19:54.873Z,78.80
2018-03-18T04:22:21.424Z,78.80
2018-03-18T04:24:48.613Z,78.70
2018-03-18T04:27:15.042Z,78.70
2018-03-18T04:29:42.328Z,78.00
2018-03-18T04:32:09.525Z,77.90
2018-03-18T04:34:36.018Z,77.90
2018-03-18T04:37:02.515Z,78.20
2018-03-18T04:39:29.071Z,78.20
2018-03-18T04:41:56.258Z,77.90
2018-03-18T04:44:22.718Z,77.80
2018-03-18T04:46:49.170Z,78.10
2018-03-18T04:49:15.619Z,77.90
2018-03-18T04:51:42.800Z,77.80
2018-03-18T04:54:09.247Z,77.80
2018-03-18T04:56:36.386Z,78.00
2018-03-18T04:59:02.851Z,77.40
2018-03-18T05:01:29.285Z,77.20
2018-03-18T05:03:56.470Z,76.70
2018-03-18T05:06:22.918Z,76.60
2018-03-18T05:08:49.314Z,76.90
2018-03-18T05:11:16.559Z,77.60
2018-03-18T05:13:43.146Z,77.60
2018-03-18T05:16:10.304Z,77.40
2018-03-18T05:18:37.592Z,77.40
2018-03-18T05:21:04.761Z,76.60
2018-03-18T05:23:31.943Z,76.20
2018-03-18T05:25:58.350Z,76.10
2018-03-18T05:28:25.258Z,76.20
2018-03-18T05:30:52.408Z,76.10
2018-03-18T05:33:18.849Z,76.10
2018-03-18T05:35:45.884Z,76.70
2018-03-18T05:38:12.360Z,77.10
2018-03-18T05:40:38.784Z,77.00
2018-03-18T05:43:05.191Z,76.90
2018-03-18T05:45:31.612Z,76.20
2018-03-18T05:47:58.017Z,76.40
2018-03-18T05:50:25.163Z,76.90
2018-03-18T05:52:51.567Z,76.80
2018-03-18T05:55:18.666Z,76.50
2018-03-18T05:57:45.068Z,76.90
2018-03-18T06:00:12.226Z,77.20
2018-03-18T06:02:39.663Z,76.70
2018-03-18T06:05:06.190Z,76.20
2018-03-18T06:07:32.751Z,75.80
2018-03-18T06:09:59.919Z,75.70
2018-03-18T06:12:27.218Z,76.10
2018-03-18T06:14:53.638Z,76.10
2018-03-18T06:17:20.788Z,75.80
2018-03-18T06:19:47.236Z,74.90
2018-03-18T06:22:13.738Z,75.20
2018-03-18T06:24:40.883Z,74.20
2018-03-18T06:27:08.075Z,73.50
2018-03-18T06:29:35.252Z,73.30
2018-03-18T06:32:01.709Z,73.30
2018-03-18T06:34:28.882Z,73.20
2018-03-18T06:36:56.040Z,72.30
2018-03-18T06:39:23.197Z,72.60
2018-03-18T06:41:49.630Z,72.60
2018-03-18T06:44:16.040Z,71.30
2018-03-18T06:46:42.601Z,70.60
2018-03-18T06:49:09.064Z,69.90
2018-03-18T06:51:35.504Z,66.60
2018-03-18T06:54:01.933Z,63.30
2018-03-18T06:56:28.945Z,60.20
2018-03-18T06:58:55.347Z,58.60
2018-03-18T07:01:22.303Z,57.60
2018-03-18T07:03:48.732Z,56.00
2018-03-18T07:06:15.914Z,54.60
2018-03-18T07:08:42.338Z,55.00
2018-03-18T07:11:08.769Z,54.10
2018-03-18T07:13:35.202Z,52.90
2018-03-18T07:16:01.667Z,51.90
2018-03-18T07:18:28.881Z,48.80
2018-03-18T07:20:56.048Z,48.80
2018-03-18T07:23:23.174Z,48.30
2018-03-18T07:25:49.608Z,48.20
2018-03-18T07:28:16.054Z,47.80
2018-03-18T07:30:42.488Z,47.10
2018-03-18T07:33:09.004Z,46.80
2018-03-18T07:35:35.429Z,46.60
2018-03-18T07:38:01.857Z,46.00
2018-03-18T07:40:29.719Z,44.60
2018-03-18T07:42:56.148Z,44.60
2018-03-18T07:45:22.675Z,44.00
2018-03-18T07:47:49.217Z,43.90
2018-03-18T07:50:16.397Z,43.30
2018-03-18T07:52:42.830Z,43.30
2018-03-18T07:55:10.035Z,42.50
2018-03-18T07:57:36.527Z,42.40
2018-03-18T08:00:03.134Z,42.40
2018-03-18T08:02:30.319Z,41.70
2018-03-18T08:04:56.714Z,41.70
2018-03-18T08:07:23.122Z,40.90
2018-03-18T08:09:49.676Z,40.60
2018-03-18T08:12:16.884Z,41.10
2018-03-18T08:14:43.315Z,41.00
2018-03-18T08:17:09.777Z,40.40
2018-03-18T08:19:36.181Z,40.50
2018-03-18T08:22:02.588Z,40.20
2018-03-18T08:24:29.129Z,40.20
2018-03-18T08:26:56.293Z,39.10
2018-03-18T08:29:23.513Z,39.10
2018-03-18T08:31:51.983Z,39.10
2018-03-18T08:34:18.453Z,38.50
2018-03-18T08:36:45.627Z,37.90
2018-03-18T08:39:14.208Z,37.80
2018-03-18T08:41:41.399Z,37.10
2018-03-18T08:44:07.835Z,37.10
2018-03-18T08:46:35.112Z,38.10
2018-03-18T08:49:02.400Z,38.00
2018-03-18T08:51:28.873Z,38.00
2018-03-18T08:53:55.326Z,37.40
2018-03-18T08:56:21.835Z,36.60
2018-03-18T08:58:48.519Z,35.80
2018-03-18T09:01:15.665Z,35.00
2018-03-18T09:03:42.147Z,35.10
2018-03-18T09:06:09.423Z,35.40
2018-03-18T09:08:35.944Z,35.30
2018-03-18T09:11:02.538Z,35.60
2018-03-18T09:13:29.698Z,36.30
2018-03-18T09:15:57.090Z,37.30
2018-03-18T09:18:23.643Z,36.70
2018-03-18T09:20:50.869Z,38.00
2018-03-18T09:23:17.369Z,37.90
2018-03-18T09:25:44.739Z,38.60
2018-03-18T09:28:12.026Z,39.90
2018-03-18T09:30:38.588Z,39.80
2018-03-18T09:33:05.112Z,40.70
2018-03-18T09:35:31.611Z,41.30
2018-03-18T09:37:58.024Z,41.10
2018-03-18T09:40:24.505Z,41.30
2018-03-18T09:42:51.001Z,40.80
2018-03-18T09:45:17.985Z,40.90
2018-03-18T09:47:44.462Z,41.60
2018-03-18T09:50:10.912Z,42.00
2018-03-18T09:52:37.407Z,42.50
2018-03-18T09:55:04.684Z,43.10
2018-03-18T09:57:31.864Z,43.40
2018-03-18T09:59:58.345Z,43.40
2018-03-18T10:02:24.877Z,43.60
2018-03-18T10:04:51.345Z,43.70
2018-03-18T10:07:18.296Z,44.80
2018-03-18T10:09:44.822Z,44.30
2018-03-18T10:12:12.229Z,43.40
2018-03-18T10:14:40.222Z,43.80
2018-03-18T10:17:07.184Z,43.80
2018-03-18T10:19:33.618Z,44.10
2018-03-18T10:22:01.228Z,44.10
2018-03-18T10:24:27.689Z,44.10
2018-03-18T10:26:54.343Z,44.20
2018-03-18T10:29:21.001Z,44.60
2018-03-18T10:31:48.264Z,44.10
2018-03-18T10:34:15.603Z,44.80
2018-03-18T10:36:42.152Z,44.70
2018-03-18T10:39:08.773Z,45.40
2018-03-18T10:41:35.434Z,45.70
2018-03-18T10:44:02.623Z,44.80
2018-03-18T10:46:29.073Z,44.80
2018-03-18T10:48:55.493Z,44.40
2018-03-18T10:51:21.927Z,45.30
2018-03-18T10:53:48.369Z,45.10
2018-03-18T10:56:14.851Z,45.00
2018-03-18T10:58:41.336Z,44.40
2018-03-18T11:01:10.458Z,44.80
2018-03-18T11:03:39.586Z,44.90
2018-03-18T11:06:06.060Z,44.90
2018-03-18T11:08:32.493Z,44.90
2018-03-18T11:10:59.571Z,45.30
2018-03-18T11:13:26.031Z,45.60
2018-03-18T11:15:52.465Z,46.10
2018-03-18T11:18:19.749Z,44.90
2018-03-18T11:20:46.404Z,44.90
2018-03-18T11:23:13.065Z,45.00
2018-03-18T11:25:40.210Z,45.50
2018-03-18T11:28:06.675Z,45.50
2018-03-18T11:30:33.839Z,44.60
2018-03-18T11:33:00.279Z,44.50
2018-03-18T11:35:26.709Z,44.90
2018-03-18T11:37:53.642Z,45.10
2018-03-18T11:40:20.198Z,45.00
2018-03-18T11:42:47.354Z,45.10
2018-03-18T11:45:14.541Z,45.90
2018-03-18T11:47:41.694Z,45.70
2018-03-18T11:50:08.156Z,45.60
2018-03-18T11:52:35.381Z,46.50
2018-03-18T11:55:01.884Z,46.40
2018-03-18T11:57:29.058Z,46.50
2018-03-18T11:59:55.531Z,46.50
2018-03-18T12:02:22.702Z,46.90
2018-03-18T12:04:49.905Z,46.60
2018-03-18T12:07:16.434Z,46.60
2018-03-18T12:09:43.640Z,45.80
2018-03-18T12:12:10.138Z,45.70
2018-03-18T12:14:36.614Z,46.00
2018-03-18T12:17:03.077Z,45.90
2018-03-18T12:19:30.314Z,45.50
2018-03-18T12:21:56.810Z,45.30
2018-03-18T12:24:24.064Z,45.80
2018-03-18T12:26:50.486Z,45.70
2018-03-18T12:29:16.888Z,46.00
2018-03-18T12:31:44.158Z,46.00
2018-03-18T12:34:10.622Z,46.00
2018-03-18T12:36:37.141Z,45.90
2018-03-18T12:39:03.794Z,45.60
2018-03-18T12:41:30.209Z,45.40
2018-03-18T12:43:56.655Z,45.20
2018-03-18T12:46:24.028Z,44.20
2018-03-18T12:48:51.208Z,44.70
2018-03-18T12:51:17.702Z,44.70
2018-03-18T12:53:44.150Z,45.70
2018-03-18T12:56:11.132Z,46.10
2018-03-18T12:58:37.580Z,46.20
2018-03-18T13:01:04.217Z,46.50
2018-03-18T13:03:31.001Z,45.30
2018-03-18T13:05:58.389Z,44.10
2018-03-18T13:08:24.897Z,44.60
2018-03-18T13:10:51.907Z,44.40
2018-03-18T13:13:19.324Z,44.80
2018-03-18T13:15:45.771Z,45.10
2018-03-18T13:18:12.588Z,45.20
2018-03-18T13:20:40.329Z,45.30
2018-03-18T13:23:08.135Z,45.50
2018-03-18T13:25:34.871Z,44.90
2018-03-18T13:28:01.573Z,44.70
2018-03-18T13:30:28.562Z,44.80
2018-03-18T13:32:55.536Z,44.90
2018-03-18T13:35:21.970Z,44.80
2018-03-18T13:37:48.458Z,44.10
2018-03-18T13:40:15.356Z,44.10
2018-03-18T13:42:41.875Z,44.60
2018-03-18T13:45:08.753Z,44.40
2018-03-18T13:47:35.349Z,44.00
2018-03-18T13:50:02.801Z,44.20
2018-03-18T13:52:30.308Z,44.40
2018-03-18T13:54:56.754Z,44.30
2018-03-18T13:57:23.222Z,44.10
2018-03-18T13:59:50.017Z,44.10
2018-03-18T14:02:17.812Z,43.80
2018-03-18T14:04:44.606Z,43.50
2018-03-18T14:07:11.090Z,43.70
2018-03-18T14:09:38.963Z,43.20
2018-03-18T14:12:05.387Z,43.10
2018-03-18T14:14:32.019Z,43.70
2018-03-18T14:16:58.570Z,43.10
2018-03-18T14:19:25.098Z,42.90
2018-03-18T14:21:51.884Z,43.40
2018-03-18T14:24:18.877Z,43.90
2018-03-18T14:26:45.405Z,43.00
2018-03-18T14:29:11.966Z,42.90
2018-03-18T14:31:38.874Z,43.00
2018-03-18T14:34:05.509Z,42.90
2018-03-18T14:36:32.003Z,42.80
2018-03-18T14:38:58.864Z,43.40
2018-03-18T14:41:25.311Z,42.80
2018-03-18T14:43:52.073Z,42.80
2018-03-18T14:46:18.794Z,43.20
2018-03-18T14:48:45.593Z,42.80
2018-03-18T14:51:12.182Z,42.70
2018-03-18T14:53:39.841Z,43.10
2018-03-18T14:56:06.297Z,43.10
2018-03-18T14:58:33.769Z,42.90
2018-03-18T15:01:00.806Z,42.90
2018-03-18T15:03:27.978Z,43.20
2018-03-18T15:05:54.517Z,43.20
2018-03-18T15:08:22.117Z,42.50
2018-03-18T15:10:48.583Z,42.50
2018-03-18T15:13:15.270Z,42.90
2018-03-18T15:15:41.692Z,43.40
2018-03-18T15:18:08.249Z,43.40
2018-03-18T15:20:34.909Z,43.60
2018-03-18T15:23:02.070Z,43.90
2018-03-18T15:25:29.596Z,44.40
2018-03-18T15:27:56.225Z,44.40
2018-03-18T15:30:23.619Z,44.20
2018-03-18T15:32:50.307Z,44.10
2018-03-18T15:35:17.615Z,43.50
2018-03-18T15:37:44.883Z,44.30
2018-03-18T15:40:12.139Z,43.60
2018-03-18T15:42:39.364Z,43.60
2018-03-18T15:45:06.130Z,43.50
2018-03-18T15:47:32.680Z,43.90
2018-03-18T15:49:59.401Z,44.10
2018-03-18T15:52:26.744Z,44.20
2018-03-18T15:54:53.192Z,44.10
2018-03-18T15:57:19.705Z,43.80
2018-03-18T15:59:47.068Z,44.00
2018-03-18T16:02:13.774Z,44.00
2018-03-18T16:04:40.714Z,44.40
2018-03-18T16:07:07.498Z,44.70
2018-03-18T16:09:34.194Z,44.60
2018-03-18T16:12:00.925Z,44.10
2018-03-18T16:14:27.378Z,44.70
2018-03-18T16:16:54.655Z,44.60
2018-03-18T16:19:22.073Z,44.40
2018-03-18T16:21:49.537Z,44.60
2018-03-18T16:24:16.274Z,44.60
2018-03-18T16:26:45.162Z,44.80
2018-03-18T16:29:24.910Z,44.90
2018-03-18T16:31:51.950Z,44.90
2018-03-18T16:34:18.875Z,45.00
2018-03-18T16:36:46.406Z,45.40
2018-03-18T16:39:13.634Z,45.40
2018-03-18T16:41:40.911Z,45.90
2018-03-18T16:44:09.077Z,46.00
2018-03-18T16:46:37.090Z,46.00
2018-03-18T16:49:03.740Z,45.80
2018-03-18T16:51:36.046Z,45.90
2018-03-18T16:54:03.022Z,46.30
2018-03-18T16:56:29.628Z,46.80
2018-03-18T16:58:56.923Z,46.80
2018-03-18T17:01:24.370Z,46.70
2018-03-18T17:03:50.867Z,46.60
2018-03-18T17:06:18.262Z,46.70
2018-03-18T17:08:44.718Z,46.70
2018-03-18T17:11:11.875Z,47.10
2018-03-18T17:13:39.701Z,47.00
2018-03-18T17:16:06.733Z,47.00
2018-03-18T17:18:33.241Z,47.00
2018-03-18T17:20:59.701Z,47.10
2018-03-18T17:23:26.304Z,47.10
2018-03-18T17:25:53.580Z,47.50
2018-03-18T17:28:20.009Z,47.50
2018-03-18T17:30:46.900Z,47.30
2018-03-18T17:33:14.098Z,47.40
2018-03-18T17:35:40.612Z,47.30
2018-03-18T17:38:07.069Z,47.40
2018-03-18T17:40:33.953Z,47.60
2018-03-18T17:43:00.584Z,47.90
2018-03-18T17:45:53.921Z,48.30
2018-03-18T17:48:32.801Z,48.20
2018-03-18T17:51:12.150Z,48.60
2018-03-18T17:53:50.886Z,48.60
2018-03-18T17:56:29.702Z,48.80
2018-03-18T17:58:56.668Z,48.70
2018-03-18T18:01:23.403Z,48.70
2018-03-18T18:03:51.425Z,48.70
2018-03-18T18:06:18.595Z,48.90
2018-03-18T18:08:45.224Z,49.50
2018-03-18T18:11:11.711Z,48.90
2018-03-18T18:13:39.024Z,48.80
2018-03-18T18:16:05.549Z,48.70
2018-03-18T18:18:32.008Z,48.80
2018-03-18T18:21:01.934Z,48.70
2018-03-18T18:23:28.486Z,48.60
2018-03-18T18:25:55.712Z,48.60
2018-03-18T18:28:22.204Z,48.60
2018-03-18T18:30:48.885Z,48.70
2018-03-18T18:33:16.073Z,49.20
2018-03-18T18:35:42.594Z,49.10
2018-03-18T18:38:09.790Z,49.30
2018-03-18T18:40:37.064Z,49.30
2018-03-18T18:43:03.622Z,49.30
2018-03-18T18:45:30.114Z,49.20
2018-03-18T18:47:56.636Z,49.40
2018-03-18T18:50:23.833Z,49.30
2018-03-18T18:52:50.367Z,49.30
2018-03-18T18:55:17.768Z,49.30
2018-03-18T18:57:45.637Z,49.30
2018-03-18T19:00:12.156Z,49.40
2018-03-18T19:02:38.590Z,49.40
2018-03-18T19:05:05.054Z,49.70
2018-03-18T19:07:31.502Z,49.60
2018-03-18T19:09:57.947Z,49.80
2018-03-18T19:12:24.480Z,50.00
2018-03-18T19:14:51.438Z,50.00
2018-03-18T19:17:18.732Z,50.30
2018-03-18T19:19:45.152Z,50.30
2018-03-18T19:22:12.332Z,51.10
2018-03-18T19:24:39.678Z,50.60
2018-03-18T19:27:06.125Z,50.50
2018-03-18T19:29:32.596Z,50.40
2018-03-18T19:31:59.080Z,50.50
2018-03-18T19:34:26.283Z,50.50
2018-03-18T19:36:52.721Z,50.50
2018-03-18T19:39:19.269Z,50.80
2018-03-18T19:41:46.036Z,51.40
2018-03-18T19:44:12.820Z,50.90
2018-03-18T19:46:39.666Z,51.00
2018-03-18T19:49:06.874Z,51.40
2018-03-18T19:51:33.599Z,51.30
2018-03-18T19:54:01.498Z,51.50
2018-03-18T19:56:28.151Z,51.50
2018-03-18T19:58:55.218Z,51.60
2018-03-18T20:01:22.569Z,51.70
2018-03-18T20:03:49.770Z,51.50
2018-03-18T20:06:16.972Z,51.50
2018-03-18T20:08:44.320Z,51.50
2018-03-18T20:11:11.024Z,51.40
2018-03-18T20:13:39.875Z,51.30
2018-03-18T20:16:07.577Z,51.30
2018-03-18T20:18:34.667Z,51.70
2018-03-18T20:21:01.201Z,51.80
2018-03-18T20:23:27.733Z,51.80
2018-03-18T20:25:54.223Z,52.10
2018-03-18T20:28:20.870Z,52.20
2018-03-18T20:30:48.158Z,52.40
2018-03-18T20:33:14.665Z,52.40
2018-03-18T20:35:41.167Z,52.40
2018-03-18T20:38:09.363Z,52.50
2018-03-18T20:40:35.892Z,52.50
2018-03-18T20:43:02.377Z,52.90
2018-03-18T20:45:29.620Z,52.90
2018-03-18T20:47:57.830Z,52.90
2018-03-18T20:50:25.094Z,53.10
2018-03-18T20:52:52.282Z,53.20
2018-03-18T20:55:19.428Z,53.30
2018-03-18T20:57:45.852Z,53.20
2018-03-18T21:00:12.295Z,53.20
2018-03-18T21:02:38.815Z,53.20
2018-03-18T21:05:05.495Z,53.40
2018-03-18T21:07:33.424Z,53.70
2018-03-18T21:09:59.916Z,53.70
2018-03-18T21:12:26.390Z,53.70
2018-03-18T21:14:53.614Z,54.00
2018-03-18T21:17:21.669Z,54.00
2018-03-18T21:19:48.732Z,54.10
2018-03-18T21:22:19.635Z,54.10
2018-03-18T21:24:46.082Z,54.70
2018-03-18T21:27:12.789Z,54.30
2018-03-18T21:29:40.079Z,54.60
2018-03-18T21:32:07.298Z,54.60
2018-03-18T21:34:38.568Z,54.60
2018-03-18T21:37:05.127Z,54.70
2018-03-18T21:39:31.548Z,54.80
2018-03-18T21:41:57.982Z,55.00
2018-03-18T21:44:25.143Z,55.40
2018-03-18T21:46:52.317Z,55.70
2018-03-18T21:49:19.605Z,56.20
2018-03-18T21:51:46.818Z,56.50
2018-03-18T21:54:13.258Z,56.40
2018-03-18T21:56:39.806Z,56.30
2018-03-18T21:59:06.351Z,56.40
2018-03-18T22:01:32.818Z,56.00
2018-03-18T22:04:00.187Z,56.30
2018-03-18T22:06:26.575Z,56.30
2018-03-18T22:08:53.027Z,56.70
2018-03-18T22:11:19.523Z,56.80
2018-03-18T22:13:45.982Z,56.60
2018-03-18T22:16:12.464Z,56.50
2018-03-18T22:18:39.742Z,57.00
2018-03-18T22:21:06.206Z,57.00
2018-03-18T22:23:32.677Z,57.20
2018-03-18T22:25:59.212Z,57.40
2018-03-18T22:28:26.482Z,57.50
2018-03-18T22:30:53.662Z,57.90
2018-03-18T22:33:20.106Z,57.80
2018-03-18T22:35:47.266Z,57.90
2018-03-18T22:38:14.454Z,57.80
2018-03-18T22:40:41.656Z,57.60
2018-03-18T22:43:08.085Z,57.50
2018-03-18T22:45:35.272Z,58.10
2018-03-18T22:48:01.707Z,58.00
2018-03-18T22:50:28.952Z,58.10
2018-03-18T22:52:55.445Z,58.10
2018-03-18T22:55:22.593Z,58.00
2018-03-18T22:57:49.004Z,58.00
2018-03-18T23:00:17.408Z,58.80
2018-03-18T23:02:43.928Z,58.30
2018-03-18T23:05:11.179Z,59.20
2018-03-18T23:07:37.609Z,59.20
2018-03-18T23:10:04.134Z,59.20
2018-03-18T23:12:30.575Z,59.40
2018-03-18T23:14:56.969Z,59.30
2018-03-18T23:17:23.394Z,59.30
2018-03-18T23:19:49.826Z,59.50
2018-03-18T23:22:16.957Z,59.50
2018-03-18T23:24:43.469Z,59.50
2018-03-18T23:27:09.953Z,59.60
2018-03-18T23:29:36.399Z,59.40
2018-03-18T23:32:02.917Z,59.50
2018-03-18T23:34:29.393Z,59.40
2018-03-18T23:36:56.565Z,59.00
2018-03-18T23:39:24.324Z,58.90
2018-03-18T23:41:51.518Z,58.90
2018-03-18T23:44:18.730Z,59.10
2018-03-18T23:46:45.160Z,59.00
2018-03-18T23:49:11.710Z,59.20
2018-03-18T23:51:38.991Z,59.10
2018-03-18T23:54:05.441Z,59.10
2018-03-18T23:56:31.916Z,59.00
2018-03-18T23:58:58.365Z,58.60
